Time;durP1;ratioP1;P1;durP2;ratioP2;P2;SDS_P1;SDS_P2;PMS_P1;PMS_P2;Temp;Humidity;BMP_temperature;BMP_pressure;BME280_temperature;BME280_humidity;BME280_pressure;Samples;Min_cycle;Max_cycle;Signal;HPM_P1;HPM_P2
2023/03/18 00:01:34;;;;;;;19.50;10.10;;;;;;;7.08;69.59;101154.22;5086995;28;20052;-84
2023/03/18 00:04:03;;;;;;;20.20;10.73;;;;;;;7.08;70.54;101162.38;5081540;28;20055;-84
2023/03/18 00:06:31;;;;;;;17.48;10.88;;;;;;;7.11;71.26;101159.19;5094786;28;20056;-84
2023/03/18 00:08:59;;;;;;;20.35;10.43;;;;;;;7.09;70.74;101164.06;5095071;28;20044;-84
2023/03/18 00:11:27;;;;;;;18.35;10.13;;;;;;;7.06;71.65;101159.09;5076671;28;20078;-84
2023/03/18 00:13:55;;;;;;;19.23;10.48;;;;;;;7.01;71.43;101159.00;5094736;28;20044;-84
2023/03/18 00:16:23;;;;;;;20.77;10.35;;;;;;;6.93;72.62;101158.31;5075749;28;20059;-84
2023/03/18 00:18:51;;;;;;;20.58;10.43;;;;;;;6.91;73.39;101165.91;5093735;28;20044;-84
2023/03/18 00:21:19;;;;;;;17.92;10.60;;;;;;;6.88;73.34;101155.47;5093981;28;20066;-84
2023/03/18 00:23:48;;;;;;;20.65;10.63;;;;;;;6.83;73.05;101160.81;5093924;28;20040;-84
2023/03/18 00:26:16;;;;;;;20.25;10.18;;;;;;;6.80;72.54;101159.41;5093872;28;20080;-84
2023/03/18 00:28:45;;;;;;;20.85;11.32;;;;;;;6.86;71.97;101153.00;5094165;28;20840;-84
2023/03/18 00:31:12;;;;;;;17.67;10.63;;;;;;;6.86;72.50;101149.47;5094436;28;20063;-84
2023/03/18 00:33:44;;;;;;;20.83;10.98;;;;;;;6.85;71.80;101147.81;5092716;28;20048;-84
2023/03/18 00:36:15;;;;;;;18.70;10.95;;;;;;;6.75;71.78;101147.59;5093890;28;20067;-84
2023/03/18 00:38:44;;;;;;;20.95;11.07;;;;;;;6.75;71.82;101142.97;5074926;28;20052;-84
2023/03/18 00:41:14;;;;;;;18.73;11.25;;;;;;;6.73;71.72;101147.81;5093874;28;20406;-84
2023/03/18 00:43:53;;;;;;;18.77;11.18;;;;;;;6.69;71.88;101150.19;5094072;28;20047;-84
2023/03/18 00:46:28;;;;;;;23.15;11.85;;;;;;;6.55;73.12;101137.94;5094264;28;20415;-84
2023/03/18 00:49:03;;;;;;;24.30;11.43;;;;;;;6.44;73.04;101140.44;5093900;28;20055;-84
2023/03/18 00:51:36;;;;;;;22.33;11.70;;;;;;;6.32;75.62;101136.91;5076907;28;20059;-84
2023/03/18 00:54:06;;;;;;;20.42;10.88;;;;;;;6.37;73.06;101137.00;5075595;28;20044;-84
2023/03/18 00:56:38;;;;;;;17.60;10.18;;;;;;;6.40;73.24;101133.00;5076083;28;20044;-84
2023/03/18 00:59:07;;;;;;;22.67;12.02;;;;;;;6.42;72.03;101134.41;5075208;28;20051;-84
2023/03/18 01:01:36;;;;;;;19.92;11.63;;;;;;;6.38;72.78;101133.22;5093322;28;20048;-84
2023/03/18 01:04:05;;;;;;;14.68;9.57;;;;;;;6.41;72.64;101124.59;5093020;28;20044;-84
2023/03/18 01:06:35;;;;;;;19.50;10.18;;;;;;;6.45;72.66;101123.03;5075930;28;20050;-84
2023/03/18 01:09:05;;;;;;;15.02;9.48;;;;;;;6.44;71.91;101126.84;5059192;28;20048;-84
2023/03/18 01:11:33;;;;;;;16.00;9.38;;;;;;;6.42;72.03;101117.25;5093740;28;20071;-84
2023/03/18 01:14:02;;;;;;;17.50;9.88;;;;;;;6.43;72.30;101125.19;5075153;28;20045;-84
2023/03/18 01:16:30;;;;;;;19.55;9.85;;;;;;;6.38;72.43;101121.50;5071330;28;20490;-84
2023/03/18 01:18:59;;;;;;;18.08;10.10;;;;;;;6.21;72.95;101116.00;5090535;28;20064;-84
2023/03/18 01:21:27;;;;;;;17.00;10.30;;;;;;;6.21;71.87;101110.56;5066487;28;20044;-84
2023/03/18 01:23:59;;;;;;;18.17;11.52;;;;;;;6.17;72.83;101113.72;5063566;28;20040;-84
2023/03/18 01:26:29;;;;;;;20.10;9.93;;;;;;;6.15;74.46;101099.56;5075380;28;20044;-84
2023/03/18 01:28:59;;;;;;;21.15;10.48;;;;;;;6.17;73.10;101100.13;5092122;28;20056;-84
2023/03/18 01:31:29;;;;;;;18.45;10.55;;;;;;;6.13;71.44;101096.25;5075319;28;20036;-84
2023/03/18 01:34:03;;;;;;;17.48;10.95;;;;;;;6.08;70.90;101089.88;5074602;28;20044;-84
2023/03/18 01:36:42;;;;;;;21.15;10.75;;;;;;;6.11;70.91;101101.09;5074709;28;20052;-84
2023/03/18 01:39:10;;;;;;;19.60;10.65;;;;;;;6.02;70.71;101092.47;5092426;28;20051;-84
2023/03/18 01:41:39;;;;;;;18.17;9.38;;;;;;;6.12;70.89;101088.34;5074496;28;20059;-84
2023/03/18 01:44:18;;;;;;;16.83;10.10;;;;;;;6.05;71.97;101092.00;5074517;28;20486;-84
2023/03/18 01:46:49;;;;;;;18.88;10.32;;;;;;;6.07;71.50;101083.63;5075148;28;20482;-84
2023/03/18 01:49:35;;;;;;;19.38;9.90;;;;;;;6.08;71.35;101071.69;5073746;28;20060;-84
2023/03/18 01:52:11;;;;;;;18.27;9.40;;;;;;;6.01;71.22;101076.41;5059631;28;20040;-85
2023/03/18 01:54:45;;;;;;;14.00;8.85;;;;;;;6.02;72.00;101080.75;5074252;28;20097;-84
2023/03/18 01:57:16;;;;;;;17.58;9.98;;;;;;;5.99;72.15;101081.22;5075066;28;20059;-84
2023/03/18 01:59:49;;;;;;;16.95;9.70;;;;;;;5.92;71.45;101081.34;5074329;28;20044;-84
2023/03/18 02:02:19;;;;;;;19.35;10.63;;;;;;;5.93;71.55;101072.13;5074435;28;20509;-84
2023/03/18 02:04:51;;;;;;;19.88;9.88;;;;;;;5.94;70.80;101070.22;5073726;28;20410;-84
2023/03/18 02:07:24;;;;;;;17.50;9.93;;;;;;;5.92;71.29;101070.50;5092048;28;20407;-84
2023/03/18 02:09:55;;;;;;;19.48;10.02;;;;;;;5.89;72.17;101055.50;5108665;28;20426;-84
2023/03/18 02:12:32;;;;;;;19.67;10.50;;;;;;;5.92;71.56;101060.44;5074065;28;20426;-84
2023/03/18 02:15:06;;;;;;;19.02;10.00;;;;;;;5.95;70.73;101059.13;5073808;28;20044;-85
2023/03/18 02:17:38;;;;;;;17.85;9.75;;;;;;;5.79;71.26;101055.25;5074842;28;20044;-84
2023/03/18 02:20:51;;;;;;;15.18;9.65;;;;;;;5.74;71.50;101057.84;5107111;28;20051;-84
2023/03/18 02:23:51;;;;;;;15.20;9.88;;;;;;;5.72;71.34;101040.97;5107763;28;20048;-84
2023/03/18 02:26:34;;;;;;;18.20;10.68;;;;;;;5.64;72.37;101055.72;5091141;28;20052;-84
2023/03/18 02:29:05;;;;;;;18.23;9.88;;;;;;;5.62;71.44;101053.22;5073674;28;20075;-84
2023/03/18 02:31:44;;;;;;;16.90;9.68;;;;;;;5.61;73.56;101043.44;5105220;28;20056;-83
2023/03/18 02:34:12;;;;;;;19.05;9.85;;;;;;;5.62;73.57;101042.34;5073105;28;20048;-84
2023/03/18 02:36:41;;;;;;;17.55;10.35;;;;;;;5.58;72.95;101041.16;5073937;28;20395;-84
2023/03/18 02:39:15;;;;;;;16.73;9.45;;;;;;;5.60;73.03;101040.94;5073691;28;20052;-84
2023/03/18 02:41:43;;;;;;;16.88;8.98;;;;;;;5.62;73.46;101042.34;5067846;28;20067;-85
2023/03/18 02:44:12;;;;;;;15.82;9.60;;;;;;;5.53;72.63;101040.22;5073259;28;20052;-84
2023/03/18 02:47:04;;;;;;;18.98;9.95;;;;;;;5.58;72.04;101037.66;5091513;28;20507;-84
2023/03/18 02:49:32;;;;;;;17.98;8.98;;;;;;;5.60;72.64;101035.50;5073883;28;20074;-85
2023/03/18 02:52:00;;;;;;;16.65;9.38;;;;;;;5.58;72.36;101046.59;5073537;28;20403;-84
2023/03/18 02:54:30;;;;;;;17.38;9.25;;;;;;;5.54;72.56;101042.72;5090643;28;20047;-84
2023/03/18 02:56:58;;;;;;;18.17;10.25;;;;;;;5.52;73.16;101036.69;5090924;28;20063;-85
2023/03/18 02:59:26;;;;;;;18.10;9.50;;;;;;;5.50;73.40;101038.81;5057019;28;20740;-84
2023/03/18 03:01:56;;;;;;;17.73;9.88;;;;;;;5.46;75.58;101034.91;5076691;28;20048;-85
2023/03/18 03:04:25;;;;;;;18.10;9.50;;;;;;;5.46;74.01;101037.63;5076623;28;20059;-84
2023/03/18 03:06:54;;;;;;;17.48;10.13;;;;;;;5.47;73.62;101026.53;5077944;28;20044;-84
2023/03/18 03:09:34;;;;;;;19.88;9.43;;;;;;;5.49;74.23;101034.44;5077561;28;20414;-84
2023/03/18 03:12:05;;;;;;;21.65;10.75;;;;;;;5.41;73.51;101021.19;5111249;28;20044;-84
2023/03/18 03:14:37;;;;;;;18.58;10.23;;;;;;;5.42;73.71;101031.84;5077014;28;20491;-84
2023/03/18 03:17:06;;;;;;;15.57;8.73;;;;;;;5.34;73.14;101032.19;5077293;28;20401;-84
2023/03/18 03:19:34;;;;;;;17.42;10.18;;;;;;;5.32;73.49;101024.28;5077044;28;20394;-84
2023/03/18 03:22:02;;;;;;;17.13;9.70;;;;;;;5.32;72.37;101029.69;5076479;28;20055;-84
2023/03/18 03:24:30;;;;;;;17.13;9.77;;;;;;;5.36;73.02;101022.75;5077187;28;20418;-84
2023/03/18 03:26:58;;;;;;;18.85;11.15;;;;;;;5.42;73.72;101022.88;5095070;28;20055;-84
2023/03/18 03:29:26;;;;;;;16.70;10.68;;;;;;;5.45;73.26;101033.25;5095579;28;20048;-84
2023/03/18 03:31:54;;;;;;;19.02;9.73;;;;;;;5.50;72.10;101030.66;5076780;28;20052;-84
2023/03/18 03:34:23;;;;;;;16.38;9.50;;;;;;;5.43;72.22;101027.25;5076804;28;20059;-84
2023/03/18 03:36:51;;;;;;;19.50;10.73;;;;;;;5.36;72.22;101028.19;5077284;28;20036;-84
2023/03/18 03:39:19;;;;;;;17.65;9.77;;;;;;;5.33;72.37;101023.19;5095423;28;20055;-83
2023/03/18 03:41:47;;;;;;;19.45;10.05;;;;;;;5.35;73.58;101029.25;5094546;28;20063;-85
2023/03/18 03:44:16;;;;;;;18.95;10.82;;;;;;;5.32;73.62;101020.75;5062019;28;20048;-85
2023/03/18 03:46:48;;;;;;;18.83;10.70;;;;;;;5.25;73.22;101026.28;5108263;28;20485;-84
2023/03/18 03:49:17;;;;;;;18.38;10.05;;;;;;;5.30;74.21;101029.13;5115026;28;20130;-84
2023/03/18 03:51:45;;;;;;;16.83;11.10;;;;;;;5.27;73.32;101020.63;5113930;28;20054;-84
2023/03/18 03:54:14;;;;;;;17.27;10.18;;;;;;;5.22;73.37;101029.44;5096675;28;20036;-84
2023/03/18 03:56:42;;;;;;;16.92;10.32;;;;;;;5.21;73.45;101022.34;5096800;28;20070;-84
2023/03/18 03:59:10;;;;;;;19.63;11.10;;;;;;;5.20;75.00;101032.41;5097284;28;20061;-84
2023/03/18 04:02:07;;;;;;;21.67;10.57;;;;;;;5.22;75.87;101014.00;5092758;28;20044;-83
2023/03/18 04:04:36;;;;;;;16.52;9.52;;;;;;;5.27;74.05;101016.00;5114475;28;20474;-84
2023/03/18 04:07:05;;;;;;;18.08;9.82;;;;;;;5.31;73.77;101019.91;5097197;28;20035;-84
2023/03/18 04:09:35;;;;;;;14.07;9.18;;;;;;;5.39;75.08;101026.88;5096992;28;20039;-84
2023/03/18 04:12:04;;;;;;;20.42;11.13;;;;;;;5.38;76.06;101017.91;5095980;28;20047;-84
2023/03/18 04:14:33;;;;;;;15.98;9.55;;;;;;;5.30;74.04;101023.69;5096865;28;20032;-84
2023/03/18 04:17:02;;;;;;;19.33;9.52;;;;;;;5.30;74.97;101015.53;5115245;28;20047;-83
2023/03/18 04:19:30;;;;;;;17.02;9.38;;;;;;;5.33;74.19;101025.91;5079830;28;20047;-84
2023/03/18 04:21:58;;;;;;;19.30;9.77;;;;;;;5.40;74.85;101024.97;5114919;28;20051;-84
2023/03/18 04:24:26;;;;;;;17.35;10.25;;;;;;;5.39;78.19;101013.31;5113431;28;20489;-84
2023/03/18 04:26:53;;;;;;;17.40;10.02;;;;;;;5.28;73.77;101024.97;5096499;28;20055;-84
2023/03/18 04:29:22;;;;;;;16.08;9.07;;;;;;;5.30;74.14;101029.13;5096014;28;20047;-83
2023/03/18 04:31:50;;;;;;;16.67;9.38;;;;;;;5.31;72.91;101027.22;5095902;28;20054;-83
2023/03/18 04:34:19;;;;;;;17.85;9.25;;;;;;;5.37;73.41;101029.81;5095779;28;20410;-84
2023/03/18 04:36:47;;;;;;;21.95;10.35;;;;;;;5.38;73.02;101028.75;5095992;28;20052;-83
2023/03/18 04:39:16;;;;;;;18.55;10.23;;;;;;;5.42;72.67;101017.44;5076271;28;20044;-84
2023/03/18 04:41:45;;;;;;;16.83;9.85;;;;;;;5.38;74.06;101017.09;5106429;28;20409;-83
2023/03/18 04:44:16;;;;;;;13.50;9.98;;;;;;;5.38;72.62;101015.19;5095756;28;20047;-83
2023/03/18 04:46:50;;;;;;;17.77;9.15;;;;;;;5.30;73.89;101018.25;5095478;28;20055;-84
2023/03/18 04:49:19;;;;;;;17.60;9.30;;;;;;;5.26;73.27;101017.06;5127934;27;20067;-83
2023/03/18 04:51:48;;;;;;;18.25;10.18;;;;;;;5.22;73.03;101024.00;5113320;28;20398;-83
2023/03/18 04:54:26;;;;;;;17.38;10.25;;;;;;;5.22;74.20;101024.00;5096106;28;20043;-83
2023/03/18 04:56:57;;;;;;;18.60;10.55;;;;;;;5.19;73.87;101019.06;5096074;28;20047;-84
2023/03/18 04:59:26;;;;;;;18.92;9.85;;;;;;;5.15;75.49;101018.69;5096242;28;20062;-83
2023/03/18 05:01:54;;;;;;;20.50;10.70;;;;;;;5.14;75.91;101018.94;5095367;28;20054;-83
2023/03/18 05:04:22;;;;;;;20.95;10.73;;;;;;;5.13;75.78;101022.72;5096028;28;20044;-84
2023/03/18 05:06:53;;;;;;;19.48;10.77;;;;;;;5.10;75.94;101024.00;5113508;28;20044;-83
2023/03/18 05:09:27;;;;;;;19.42;10.82;;;;;;;5.09;75.65;101016.91;5096137;28;20052;-83
2023/03/18 05:11:56;;;;;;;20.52;11.05;;;;;;;5.03;76.33;101026.81;5095888;28;20043;-84
2023/03/18 05:14:30;;;;;;;16.00;10.05;;;;;;;5.07;75.46;101017.16;5095663;28;20051;-84
2023/03/18 05:17:00;;;;;;;20.33;11.30;;;;;;;5.14;75.83;101021.66;5130032;27;20394;-84
2023/03/18 05:19:29;;;;;;;18.65;10.73;;;;;;;5.21;76.03;101025.06;5095068;28;20062;-84
2023/03/18 05:22:10;;;;;;;20.48;10.98;;;;;;;5.27;75.48;101026.84;5129581;27;20051;-84
2023/03/18 05:24:39;;;;;;;18.65;10.18;;;;;;;5.28;75.28;101033.94;5093846;28;20047;-84
2023/03/18 05:27:12;;;;;;;18.75;10.93;;;;;;;5.23;76.41;101026.50;5112870;28;20055;-83
2023/03/18 05:29:44;;;;;;;22.95;10.13;;;;;;;5.20;76.13;101031.56;5094472;28;20054;-84
2023/03/18 05:32:16;;;;;;;19.27;10.23;;;;;;;5.27;76.52;101036.91;5095500;28;20039;-83
2023/03/18 05:34:47;;;;;;;17.77;10.88;;;;;;;5.32;76.81;101034.31;5094689;28;20051;-83
2023/03/18 05:37:15;;;;;;;22.42;10.88;;;;;;;5.38;75.56;101044.25;5113097;28;20536;-83
2023/03/18 05:39:52;;;;;;;22.67;11.40;;;;;;;5.42;75.50;101033.75;5094720;28;20043;-83
2023/03/18 05:42:20;;;;;;;21.38;10.98;;;;;;;5.46;76.15;101041.16;5094141;28;20063;-83
2023/03/18 05:44:49;;;;;;;19.77;10.80;;;;;;;5.54;75.70;101042.72;5102180;28;20044;-83
2023/03/18 05:47:21;;;;;;;16.15;10.32;;;;;;;5.65;74.23;101043.78;5073791;28;20406;-82
2023/03/18 05:50:10;;;;;;;23.10;11.77;;;;;;;5.75;74.62;101043.19;5074295;28;20044;-82
2023/03/18 05:52:39;;;;;;;19.67;11.32;;;;;;;5.87;73.81;101035.88;5069996;28;20047;-82
2023/03/18 05:55:14;;;;;;;21.38;10.75;;;;;;;5.92;72.37;101038.69;5074604;28;20367;-82
2023/03/18 05:57:44;;;;;;;18.00;11.07;;;;;;;5.90;72.02;101050.88;5074711;28;20391;-82
2023/03/18 06:00:12;;;;;;;18.52;9.80;;;;;;;5.95;71.63;101044.75;5074290;28;20040;-82
2023/03/18 06:02:45;;;;;;;16.98;9.60;;;;;;;5.99;72.48;101044.03;5088424;28;20386;-82
2023/03/18 06:05:14;;;;;;;15.65;9.65;;;;;;;6.02;71.72;101049.00;5069265;28;20414;-82
2023/03/18 06:07:42;;;;;;;20.63;10.43;;;;;;;6.04;71.80;101040.63;5091290;28;20390;-82
2023/03/18 06:10:11;;;;;;;18.40;10.88;;;;;;;6.07;72.86;101040.16;5072691;28;20048;-82
2023/03/18 06:12:40;;;;;;;17.60;9.07;;;;;;;6.15;71.89;101042.50;5073614;28;20043;-82
2023/03/18 06:15:09;;;;;;;15.00;9.32;;;;;;;6.18;72.23;101046.63;5037385;28;20044;-82
2023/03/18 06:17:38;;;;;;;15.90;9.73;;;;;;;6.25;70.68;101041.88;5052600;28;20491;-83
2023/03/18 06:20:10;;;;;;;18.60;9.25;;;;;;;6.38;71.86;101051.66;5087064;28;20047;-82
2023/03/18 06:22:39;;;;;;;14.60;9.38;;;;;;;6.41;70.85;101050.38;5072964;28;20056;-82
2023/03/18 06:25:08;;;;;;;15.60;8.95;;;;;;;6.42;71.34;101049.28;5074290;28;20052;-83
2023/03/18 06:27:38;;;;;;;13.10;7.65;;;;;;;6.49;71.54;101057.31;5073875;28;20067;-83
2023/03/18 06:30:08;;;;;;;17.45;10.13;;;;;;;6.56;70.95;101049.84;5073073;28;20063;-83
2023/03/18 06:32:39;;;;;;;16.65;10.13;;;;;;;6.63;70.85;101058.69;5073009;28;20415;-82
2023/03/18 06:35:09;;;;;;;14.25;9.13;;;;;;;6.75;71.11;101055.91;5056329;28;20067;-82
2023/03/18 06:37:38;;;;;;;16.10;9.18;;;;;;;6.89;70.81;101059.19;5071910;28;20502;-82
2023/03/18 06:40:11;;;;;;;14.55;8.25;;;;;;;6.94;71.06;101062.00;5053707;28;20423;-83
2023/03/18 06:42:40;;;;;;;17.67;10.00;;;;;;;7.11;70.12;101070.22;5091188;28;20057;-83
2023/03/18 06:45:12;;;;;;;16.73;9.13;;;;;;;7.18;70.79;101063.78;5099225;28;20060;-83
2023/03/18 06:47:49;;;;;;;15.18;8.98;;;;;;;7.41;69.77;101062.81;5107200;28;20186;-82
2023/03/18 06:50:17;;;;;;;17.08;9.52;;;;;;;7.58;69.12;101073.72;5083507;28;20052;-82
2023/03/18 06:52:45;;;;;;;16.50;8.90;;;;;;;7.80;68.00;101070.25;5104888;28;20039;-82
2023/03/18 06:55:16;;;;;;;13.00;8.30;;;;;;;7.87;67.77;101064.63;5089540;28;20051;-82
2023/03/18 06:57:46;;;;;;;16.77;9.23;;;;;;;7.87;68.08;101067.34;5092188;28;20103;-82
2023/03/18 07:00:18;;;;;;;15.77;9.95;;;;;;;7.97;69.45;101072.13;5092621;28;20047;-82
2023/03/18 07:02:48;;;;;;;14.60;8.75;;;;;;;8.29;66.46;101075.03;5088699;28;20481;-82
2023/03/18 07:05:19;;;;;;;15.15;8.80;;;;;;;8.52;65.38;101078.63;5092506;28;20062;-83
2023/03/18 07:07:47;;;;;;;16.60;8.98;;;;;;;8.64;64.45;101077.69;5126258;28;20478;-83
2023/03/18 07:10:20;;;;;;;16.48;8.57;;;;;;;8.60;64.66;101083.63;5109424;28;20397;-84
2023/03/18 07:12:49;;;;;;;15.98;9.98;;;;;;;8.90;62.84;101083.41;5124343;28;20401;-83
2023/03/18 07:15:20;;;;;;;10.57;7.72;;;;;;;9.29;60.77;101094.19;5092363;28;20050;-76
2023/03/18 07:17:52;;;;;;;16.53;8.83;;;;;;;9.72;59.75;101082.53;5060750;28;20057;-76
2023/03/18 07:20:21;;;;;;;14.80;8.60;;;;;;;9.75;58.16;101082.00;5075906;28;20371;-77
2023/03/18 07:22:50;;;;;;;15.82;8.80;;;;;;;10.09;58.29;101084.44;5059991;28;20489;-77
2023/03/18 07:25:18;;;;;;;17.88;8.30;;;;;;;10.26;57.84;101091.63;5076445;28;20050;-76
2023/03/18 07:27:49;;;;;;;14.30;8.10;;;;;;;10.09;60.30;101084.44;5076094;28;20051;-75
2023/03/18 07:30:19;;;;;;;15.35;7.63;;;;;;;10.15;58.70;101093.47;5076706;28;20052;-76
2023/03/18 07:32:47;;;;;;;13.98;8.10;;;;;;;10.51;56.37;101099.16;5076675;28;20044;-75
2023/03/18 07:35:14;;;;;;;12.82;7.80;;;;;;;10.63;57.65;101093.47;5060258;28;20043;-77
2023/03/18 07:37:43;;;;;;;13.88;7.85;;;;;;;10.96;55.33;101102.34;5060053;28;20051;-77
2023/03/18 07:40:13;;;;;;;17.77;8.60;;;;;;;10.82;55.62;101102.03;5072637;28;20074;-76
2023/03/18 07:42:41;;;;;;;15.15;8.23;;;;;;;10.31;56.98;101103.41;5075398;28;20040;-75
2023/03/18 07:45:09;;;;;;;14.90;7.60;;;;;;;10.47;56.58;101107.09;5073117;28;20048;-77
2023/03/18 07:47:37;;;;;;;14.18;7.82;;;;;;;10.88;55.02;101106.44;5061362;28;20421;-76
2023/03/18 07:50:06;;;;;;;12.80;7.63;;;;;;;11.15;54.44;101110.06;5081019;28;20048;-76
2023/03/18 07:52:34;;;;;;;13.73;8.45;;;;;;;11.37;52.89;101111.72;5079980;28;20050;-76
2023/03/18 07:55:03;;;;;;;14.60;8.88;;;;;;;11.51;52.90;101118.34;5083803;28;20050;-76
2023/03/18 07:57:31;;;;;;;17.00;8.95;;;;;;;11.58;54.67;101123.53;5077823;28;20494;-77
2023/03/18 07:59:59;;;;;;;13.98;8.60;;;;;;;11.55;54.04;101113.13;5059939;28;20044;-77
2023/03/18 08:02:27;;;;;;;17.05;9.18;;;;;;;11.59;53.24;101116.94;5043661;28;20048;-77
2023/03/18 08:04:55;;;;;;;15.25;7.88;;;;;;;11.46;53.44;101122.97;5064750;28;20036;-85
2023/03/18 08:07:24;;;;;;;15.68;8.15;;;;;;;11.60;52.92;101123.25;5071244;28;20720;-84
2023/03/18 08:09:52;;;;;;;16.98;9.00;;;;;;;11.71;53.13;101127.66;5057120;28;20051;-85
2023/03/18 08:12:21;;;;;;;15.25;9.05;;;;;;;11.55;53.75;101135.88;5075762;28;20452;-85
2023/03/18 08:14:49;;;;;;;14.90;8.45;;;;;;;11.80;53.17;101137.00;5090366;28;20505;-85
2023/03/18 08:17:17;;;;;;;14.65;8.20;;;;;;;11.91;53.05;101131.47;5090480;28;20052;-85
2023/03/18 08:19:47;;;;;;;14.43;8.13;;;;;;;12.04;52.50;101130.13;5061634;28;20044;-85
2023/03/18 08:22:15;;;;;;;17.10;8.50;;;;;;;12.16;51.57;101132.56;5062107;28;20332;-85
2023/03/18 08:24:44;;;;;;;11.73;7.95;;;;;;;12.26;53.15;101132.56;5079293;28;20055;-86
2023/03/18 08:27:13;;;;;;;13.48;9.00;;;;;;;12.15;51.55;101139.16;5096004;28;20047;-84
2023/03/18 08:29:41;;;;;;;14.75;9.00;;;;;;;12.09;52.53;101128.19;5078526;28;20048;-85
2023/03/18 08:32:10;;;;;;;15.68;8.60;;;;;;;12.39;51.07;101125.69;5062225;28;20062;-84
2023/03/18 08:34:38;;;;;;;17.77;9.15;;;;;;;12.20;51.84;101136.41;5096002;27;20378;-85
2023/03/18 08:37:09;;;;;;;13.48;8.40;;;;;;;12.48;51.07;101139.66;5095387;27;20043;-85
2023/03/18 08:39:38;;;;;;;17.48;8.77;;;;;;;12.80;50.77;101140.38;5060706;28;20073;-85
2023/03/18 08:42:07;;;;;;;14.15;9.00;;;;;;;12.73;51.66;101143.41;5063070;28;20040;-85
2023/03/18 08:44:35;;;;;;;17.02;8.98;;;;;;;12.65;51.63;101146.75;5060881;28;20051;-85
2023/03/18 08:47:04;;;;;;;14.25;9.00;;;;;;;12.70;51.59;101144.00;5061740;28;20055;-85
2023/03/18 08:49:34;;;;;;;16.77;8.63;;;;;;;12.69;52.27;101142.31;5079656;28;20409;-84
2023/03/18 08:52:03;;;;;;;15.68;8.77;;;;;;;12.88;51.71;101137.88;5061988;28;20047;-85
2023/03/18 08:54:31;;;;;;;11.95;8.43;;;;;;;13.00;51.08;101134.78;5062174;28;20044;-85
2023/03/18 08:57:00;;;;;;;16.67;9.75;;;;;;;12.84;50.62;101124.94;5091017;28;20048;-83
2023/03/18 08:59:28;;;;;;;14.93;9.18;;;;;;;12.93;50.93;101134.25;5089425;28;20043;-82
2023/03/18 09:01:57;;;;;;;14.43;8.15;;;;;;;12.73;52.62;101129.69;5060913;28;20067;-83
2023/03/18 09:04:25;;;;;;;18.38;8.40;;;;;;;12.63;51.16;101131.34;5057679;28;20056;-83
2023/03/18 09:06:53;;;;;;;20.20;9.45;;;;;;;12.65;50.61;101128.31;5057497;28;20051;-82
2023/03/18 09:09:21;;;;;;;15.32;8.60;;;;;;;12.93;50.06;101144.41;5079813;28;20713;-82
2023/03/18 09:12:05;;;;;;;15.63;9.50;;;;;;;13.12;49.70;101137.19;5068720;28;20048;-81
2023/03/18 09:14:33;;;;;;;16.55;8.38;;;;;;;13.17;49.37;101134.41;5067502;28;20307;-81
2023/03/18 09:17:02;;;;;;;16.35;8.68;;;;;;;13.13;50.24;101133.34;5056212;28;20048;-82
2023/03/18 09:19:29;;;;;;;15.65;9.13;;;;;;;13.25;49.66;101135.72;5057226;28;20050;-82
2023/03/18 09:21:58;;;;;;;16.23;9.20;;;;;;;13.10;50.39;101122.09;5062031;28;20051;-83
2023/03/18 09:24:26;;;;;;;16.25;9.20;;;;;;;13.13;49.52;101136.09;5061457;28;20401;-83
2023/03/18 09:26:54;;;;;;;19.55;9.48;;;;;;;13.13;48.72;101133.34;5062038;28;20410;-83
2023/03/18 09:29:22;;;;;;;15.90;8.80;;;;;;;13.42;48.33;101135.34;5078477;28;20051;-83
2023/03/18 09:31:51;;;;;;;18.05;9.05;;;;;;;13.61;47.37;101136.63;5062388;28;20051;-83
2023/03/18 09:34:19;;;;;;;15.77;8.88;;;;;;;13.60;46.19;101124.81;5078088;28;20043;-83
2023/03/18 09:36:49;;;;;;;18.83;9.75;;;;;;;13.50;47.67;101133.13;5094699;28;20055;-83
2023/03/18 09:39:19;;;;;;;14.48;8.63;;;;;;;13.54;47.85;101124.00;5093715;28;20394;-83
2023/03/18 09:41:50;;;;;;;16.40;9.02;;;;;;;13.64;47.39;101130.56;5077893;28;20389;-83
2023/03/18 09:44:24;;;;;;;15.00;8.30;;;;;;;13.65;47.99;101132.19;5091865;28;20407;-83
2023/03/18 09:47:15;;;;;;;14.95;8.88;;;;;;;13.85;48.52;101136.69;5092047;28;20110;-82
2023/03/18 09:50:11;;;;;;;16.60;8.75;;;;;;;13.98;47.25;101130.53;5088632;28;20044;-82
2023/03/18 09:52:58;;;;;;;14.27;8.88;;;;;;;13.92;47.95;101133.59;5076042;28;20059;-83
2023/03/18 09:55:38;;;;;;;19.95;8.95;;;;;;;14.03;47.84;101128.84;5057011;28;20056;-82
2023/03/18 09:58:21;;;;;;;16.35;9.20;;;;;;;14.15;48.43;101134.78;5057178;28;20044;-81
2023/03/18 10:00:56;;;;;;;16.65;9.52;;;;;;;13.97;47.60;101139.06;5065251;28;20063;-81
2023/03/18 10:03:30;;;;;;;14.68;8.68;;;;;;;14.20;47.37;101133.91;5057612;28;20067;-82
2023/03/18 10:06:11;;;;;;;14.05;8.82;;;;;;;14.26;48.32;101142.94;5070889;28;20522;-81
2023/03/18 10:09:10;;;;;;;19.80;10.05;;;;;;;13.91;46.22;101130.03;5036878;28;20063;-80
2023/03/18 10:11:41;;;;;;;15.27;9.60;;;;;;;14.21;46.84;101110.75;5041471;28;20052;-81
2023/03/18 10:14:25;;;;;;;16.88;9.13;;;;;;;14.27;47.56;101122.53;5070893;28;20059;-80
2023/03/18 10:17:08;;;;;;;19.60;9.85;;;;;;;14.41;46.35;101117.97;5053061;28;20045;-80
2023/03/18 10:19:37;;;;;;;17.52;9.65;;;;;;;14.43;47.06;101126.78;5087047;28;20054;-81
2023/03/18 10:22:26;;;;;;;18.52;9.30;;;;;;;14.83;46.73;101125.78;5052848;28;20048;-80
2023/03/18 10:25:32;;;;;;;17.80;9.40;;;;;;;14.95;46.81;101122.59;5067233;28;20051;-81
2023/03/18 10:28:33;;;;;;;15.45;9.13;;;;;;;14.76;46.29;101120.63;5082838;28;20056;-81
2023/03/18 10:31:24;;;;;;;16.83;10.13;;;;;;;14.62;45.48;101117.75;5065728;28;20122;-80
2023/03/18 10:33:58;;;;;;;15.15;9.00;;;;;;;14.83;45.17;101115.56;5067680;28;20310;-80
2023/03/18 10:36:48;;;;;;;17.20;9.37;;;;;;;14.93;44.94;101109.09;5083282;28;20056;-80
2023/03/18 10:39:19;;;;;;;20.63;10.00;;;;;;;14.81;45.51;101104.00;5070192;28;20047;-80
2023/03/18 10:41:50;;;;;;;19.00;10.25;;;;;;;14.87;45.33;101104.78;5071063;28;20044;-80
2023/03/18 10:44:32;;;;;;;16.63;9.25;;;;;;;15.02;46.10;101106.50;5070229;28;20067;-80
2023/03/18 10:47:02;;;;;;;18.08;10.68;;;;;;;15.11;46.14;101112.16;5071389;28;20060;-81
2023/03/18 10:49:36;;;;;;;18.02;10.38;;;;;;;15.05;44.54;101111.41;5064000;28;20044;-81
2023/03/18 10:52:22;;;;;;;17.00;10.40;;;;;;;15.16;46.43;101107.38;5073987;28;20051;-81
2023/03/18 10:54:51;;;;;;;16.15;10.02;;;;;;;15.29;44.88;101105.00;5089207;28;20491;-81
2023/03/18 10:57:21;;;;;;;17.85;10.68;;;;;;;15.32;44.81;101110.72;5086827;28;20443;-82
2023/03/18 10:59:50;;;;;;;17.45;10.55;;;;;;;15.63;44.17;101106.66;5050059;28;20059;-82
2023/03/18 11:02:24;;;;;;;17.75;9.68;;;;;;;15.54;47.92;101106.53;5074108;28;20406;-82
2023/03/18 11:05:10;;;;;;;16.33;10.50;;;;;;;15.65;44.67;101111.91;5057102;28;20130;-81
2023/03/18 11:08:04;;;;;;;20.45;10.32;;;;;;;15.68;43.59;101106.59;5057611;28;20052;-81
2023/03/18 11:10:35;;;;;;;15.70;9.93;;;;;;;15.61;44.13;101100.66;5063052;28;20751;-81
2023/03/18 11:13:05;;;;;;;17.35;10.00;;;;;;;15.56;45.40;101101.53;5072421;28;20307;-80
2023/03/18 11:15:41;;;;;;;19.00;10.50;;;;;;;15.54;44.98;101100.22;5073166;28;20398;-80
2023/03/18 11:18:15;;;;;;;16.63;10.43;;;;;;;15.79;45.46;101107.22;5056847;28;20063;-81
2023/03/18 11:20:54;;;;;;;19.25;11.05;;;;;;;15.83;44.64;101102.75;5056760;28;20056;-80
2023/03/18 11:23:54;;;;;;;18.67;11.02;;;;;;;15.68;43.83;101094.72;5059594;28;20055;-80
2023/03/18 11:26:30;;;;;;;19.75;10.70;;;;;;;15.61;42.96;101105.34;5062107;28;20051;-80
2023/03/18 11:29:12;;;;;;;17.48;11.18;;;;;;;15.84;43.82;101104.38;5094281;28;20044;-81
2023/03/18 11:31:59;;;;;;;19.92;11.48;;;;;;;16.08;42.94;101097.91;5075307;28;20056;-80
2023/03/18 11:34:30;;;;;;;20.13;11.25;;;;;;;16.08;43.60;101097.91;5057757;28;20052;-81
2023/03/18 11:37:03;;;;;;;20.67;11.75;;;;;;;16.04;45.89;101096.06;5076213;28;20060;-81
2023/03/18 11:39:38;;;;;;;22.77;11.60;;;;;;;16.29;43.87;101092.00;5073464;28;20418;-81
2023/03/18 11:42:20;;;;;;;21.75;12.02;;;;;;;16.32;43.68;101096.91;5058725;28;20394;-81